Time;durP1;ratioP1;P1;durP2;ratioP2;P2;SDS_P1;SDS_P2;PMS_P1;PMS_P2;Temp;Humidity;BMP_temperature;BMP_pressure;BME280_temperature;BME280_humidity;BME280_pressure;Samples;Min_cycle;Max_cycle;Signal;HPM_P1;HPM_P2
2021/12/27 00:00:55;;;;;;;11.50;8.80;;;;;;;18.31;42.62;99251.72;4935383;29;20402;-73
2021/12/27 00:03:22;;;;;;;11.45;8.30;;;;;;;19.58;39.88;99249.38;4935720;29;20027;-78
2021/12/27 00:05:48;;;;;;;12.48;8.82;;;;;;;20.29;38.36;99242.28;4935715;29;20038;-83
2021/12/27 00:08:13;;;;;;;12.35;8.85;;;;;;;20.37;38.16;99240.22;4935624;29;20475;-73
2021/12/27 00:10:39;;;;;;;10.80;7.93;;;;;;;20.42;38.07;99239.75;4935260;29;20040;-73
2021/12/27 00:13:07;;;;;;;11.05;8.48;;;;;;;20.35;37.92;99237.88;4933853;29;20056;-73
2021/12/27 00:15:32;;;;;;;15.10;8.00;;;;;;;20.33;37.90;99236.69;4934708;29;20110;-73
2021/12/27 00:17:58;;;;;;;11.65;8.23;;;;;;;20.18;38.23;99227.78;4935227;29;20122;-75
2021/12/27 00:20:24;;;;;;;10.35;7.82;;;;;;;20.32;37.95;99219.25;4926134;29;20031;-75
2021/12/27 00:22:50;;;;;;;11.60;8.82;;;;;;;20.41;37.81;99213.22;4917994;29;20032;-73
2021/12/27 00:25:16;;;;;;;11.98;8.90;;;;;;;20.46;37.56;99221.88;4919238;29;20064;-74
2021/12/27 00:27:42;;;;;;;11.77;8.80;;;;;;;20.41;37.68;99210.47;4919296;29;20525;-74
2021/12/27 00:30:09;;;;;;;11.85;8.90;;;;;;;20.39;37.69;99210.06;4918342;29;20031;-73
2021/12/27 00:32:37;;;;;;;9.40;7.75;;;;;;;20.46;37.54;99210.78;4918757;29;20035;-74
2021/12/27 00:35:06;;;;;;;10.88;8.75;;;;;;;20.59;37.21;99207.47;4918828;29;20074;-79
2021/12/27 00:37:32;;;;;;;10.43;8.63;;;;;;;20.80;37.02;99211.94;4918255;29;20865;-77
2021/12/27 00:39:58;;;;;;;13.18;9.60;;;;;;;20.84;36.77;99210.66;4918592;29;20028;-73
2021/12/27 00:42:24;;;;;;;13.10;9.43;;;;;;;20.88;36.79;99210.63;4919705;29;20474;-73
2021/12/27 00:44:49;;;;;;;12.00;8.57;;;;;;;20.90;36.81;99211.75;4919116;29;20020;-74
2021/12/27 00:47:15;;;;;;;13.70;9.20;;;;;;;20.91;36.86;99207.00;4918204;29;20856;-73
2021/12/27 00:49:41;;;;;;;13.73;9.90;;;;;;;20.94;36.71;99206.97;4919132;29;20033;-75
2021/12/27 00:52:07;;;;;;;10.82;9.18;;;;;;;20.92;36.79;99208.56;4919590;29;20079;-75
2021/12/27 00:54:33;;;;;;;15.68;10.55;;;;;;;20.86;36.83;99201.94;4919206;29;20040;-73
2021/12/27 00:56:59;;;;;;;11.52;9.25;;;;;;;20.80;36.94;99204.38;4918658;29;20035;-73
2021/12/27 00:59:25;;;;;;;13.63;10.98;;;;;;;20.87;36.61;99200.72;4918806;29;20585;-74
2021/12/27 01:01:51;;;;;;;13.00;10.10;;;;;;;20.84;36.81;99207.88;4918405;29;20031;-79
2021/12/27 01:04:16;;;;;;;13.95;9.07;;;;;;;20.84;36.67;99202.31;4919065;29;20016;-73
2021/12/27 01:06:42;;;;;;;17.40;10.82;;;;;;;20.83;36.68;99197.22;4918754;29;20056;-73
2021/12/27 01:09:08;;;;;;;12.18;9.52;;;;;;;20.74;36.92;99204.06;4919165;29;20039;-74
2021/12/27 01:14:27;;;;;;;12.85;8.98;;;;;;;20.82;36.67;99185.31;4926266;29;20083;-73
2021/12/27 01:16:53;;;;;;;13.20;9.32;;;;;;;20.84;36.61;99177.34;4934600;29;20034;-73
2021/12/27 01:19:19;;;;;;;12.82;10.15;;;;;;;20.85;36.62;99175.34;4934686;29;20478;-73
2021/12/27 01:21:44;;;;;;;11.30;7.95;;;;;;;20.91;36.70;99173.69;4934783;29;20032;-73
2021/12/27 01:24:10;;;;;;;11.68;8.82;;;;;;;20.96;36.84;99173.22;4917315;29;20036;-73
2021/12/27 01:26:35;;;;;;;10.63;8.13;;;;;;;20.95;36.90;99164.09;4937671;29;20035;-84
2021/12/27 01:29:01;;;;;;;9.15;8.02;;;;;;;20.91;36.72;99171.69;4938096;29;20035;-75
2021/12/27 01:31:28;;;;;;;13.13;8.40;;;;;;;20.88;36.71;99168.97;4937061;29;20510;-73
2021/12/27 01:33:54;;;;;;;12.38;7.50;;;;;;;20.84;36.69;99162.69;4933012;29;20379;-73
2021/12/27 01:36:20;;;;;;;9.05;7.15;;;;;;;20.74;36.76;99169.97;4925325;29;20042;-73
2021/12/27 01:38:47;;;;;;;12.18;8.27;;;;;;;20.69;36.73;99162.91;4921680;29;20027;-74
2021/12/27 01:41:15;;;;;;;10.52;8.38;;;;;;;20.62;36.64;99157.44;4920713;29;20036;-76
2021/12/27 01:43:41;;;;;;;9.77;7.75;;;;;;;20.57;36.36;99149.63;4930259;29;20074;-73
2021/12/27 01:46:14;;;;;;;9.75;7.53;;;;;;;20.52;36.61;99152.84;4937888;29;20032;-73
2021/12/27 01:48:44;;;;;;;21.17;8.68;;;;;;;20.49;36.54;99148.94;4937825;29;20028;-72
2021/12/27 01:51:12;;;;;;;9.25;7.85;;;;;;;20.44;36.52;99148.63;4937743;29;20023;-73
2021/12/27 01:53:41;;;;;;;12.75;8.32;;;;;;;20.38;36.54;99139.94;4937766;29;20038;-73
2021/12/27 01:56:08;;;;;;;10.30;8.30;;;;;;;20.30;36.60;99141.25;4937722;29;20028;-81
2021/12/27 01:58:35;;;;;;;11.65;8.77;;;;;;;20.31;36.65;99139.25;4937624;29;20039;-73
2021/12/27 02:01:03;;;;;;;10.68;8.93;;;;;;;20.33;36.52;99125.75;4937594;29;20032;-72
2021/12/27 02:03:31;;;;;;;11.18;8.23;;;;;;;20.34;36.64;99122.56;4937581;29;20050;-74
2021/12/27 02:05:57;;;;;;;11.25;8.07;;;;;;;20.41;36.57;99122.47;4937369;29;20027;-74
2021/12/27 02:08:23;;;;;;;9.07;8.05;;;;;;;20.40;36.55;99109.81;4937358;29;20368;-73
2021/12/27 02:10:49;;;;;;;12.35;7.78;;;;;;;20.38;36.45;99108.63;4937407;29;20059;-73
2021/12/27 02:13:16;;;;;;;9.45;7.40;;;;;;;20.33;36.40;99104.38;4937141;29;20147;-84
2021/12/27 02:15:42;;;;;;;11.68;7.95;;;;;;;20.21;36.46;99097.38;4937367;29;20505;-74
2021/12/27 02:18:09;;;;;;;10.13;7.65;;;;;;;20.17;36.15;99098.63;4936806;29;20122;-75
2021/12/27 02:20:35;;;;;;;10.90;8.23;;;;;;;20.06;36.24;99103.53;4930338;29;20390;-73
2021/12/27 02:23:07;;;;;;;11.13;8.13;;;;;;;19.99;36.09;99092.56;4937270;29;20475;-73
2021/12/27 02:25:34;;;;;;;9.13;8.13;;;;;;;19.78;36.18;99088.84;4935890;29;20023;-73
2021/12/27 02:28:03;;;;;;;12.43;10.43;;;;;;;19.20;37.34;99090.66;4937047;29;20023;-72
2021/12/27 02:30:30;;;;;;;17.53;10.23;;;;;;;19.57;36.54;99083.56;4937332;29;20430;-73
2021/12/27 02:33:00;;;;;;;13.93;9.75;;;;;;;19.78;36.17;99088.84;4937008;29;20277;-73
2021/12/27 02:35:28;;;;;;;18.98;10.90;;;;;;;19.57;36.33;99084.38;4937509;29;20020;-73
2021/12/27 02:37:54;;;;;;;14.55;10.73;;;;;;;19.60;36.56;99082.75;4936654;29;20526;-82
2021/12/27 02:40:24;;;;;;;13.52;9.73;;;;;;;19.53;35.96;99074.47;4936741;29;20024;-73
2021/12/27 02:42:55;;;;;;;14.73;9.75;;;;;;;17.71;39.26;99073.91;4937125;29;20028;-82
2021/12/27 02:45:21;;;;;;;11.18;9.43;;;;;;;18.40;38.50;99068.78;4936772;29;20499;-79
2021/12/27 02:47:47;;;;;;;15.27;10.40;;;;;;;19.20;36.54;99062.97;4936770;29;20068;-82
2021/12/27 02:50:13;;;;;;;13.90;9.77;;;;;;;19.44;35.80;99052.03;4936664;29;20020;-72
2021/12/27 02:52:38;;;;;;;10.80;7.35;;;;;;;18.93;36.34;99050.97;4930731;29;20482;-72
2021/12/27 02:55:04;;;;;;;9.02;7.60;;;;;;;19.31;35.85;99044.25;4936386;29;20020;-82
2021/12/27 02:57:30;;;;;;;14.07;9.80;;;;;;;19.42;35.51;99049.66;4936541;29;20024;-73
2021/12/27 02:59:57;;;;;;;18.10;10.10;;;;;;;19.29;35.63;99052.19;4936542;29;20397;-73
2021/12/27 03:02:23;;;;;;;14.13;9.82;;;;;;;19.15;35.88;99057.88;4936416;29;20024;-83
2021/12/27 03:04:49;;;;;;;12.73;9.15;;;;;;;18.80;36.42;99047.94;4936218;29;20023;-79
2021/12/27 03:07:15;;;;;;;14.80;7.18;;;;;;;19.19;35.45;99057.84;4936190;29;20056;-73
2021/12/27 03:09:41;;;;;;;17.70;9.05;;;;;;;17.41;38.46;99055.03;4934846;29;20119;-73
2021/12/27 03:12:11;;;;;;;22.45;10.65;;;;;;;16.49;40.24;99057.91;4922757;29;20048;-73
2021/12/27 03:14:37;;;;;;;36.10;10.38;;;;;;;16.17;40.91;99057.84;4929465;29;20027;-72
2021/12/27 03:17:03;;;;;;;16.60;8.25;;;;;;;15.92;41.01;99055.84;4936194;29;20023;-72
2021/12/27 03:19:29;;;;;;;28.33;9.57;;;;;;;15.68;41.26;99054.59;4935929;29;20032;-73
2021/12/27 03:21:54;;;;;;;12.95;7.70;;;;;;;15.72;41.29;99046.34;4935650;29;20091;-72
2021/12/27 03:24:21;;;;;;;11.15;7.75;;;;;;;15.66;41.35;99045.94;4918837;29;20027;-73
2021/12/27 03:26:47;;;;;;;12.52;9.25;;;;;;;15.72;41.52;99040.84;4918802;29;20115;-73
2021/12/27 03:29:12;;;;;;;13.95;9.05;;;;;;;15.73;41.32;99036.91;4935846;29;20130;-84
2021/12/27 03:31:38;;;;;;;7.65;6.32;;;;;;;15.70;41.33;99032.16;4931985;29;20146;-73
2021/12/27 03:34:04;;;;;;;10.77;6.85;;;;;;;15.60;41.26;99030.16;4920353;29;20030;-73
2021/12/27 03:36:37;;;;;;;9.90;7.68;;;;;;;15.47;41.32;99029.69;4920014;29;20035;-73
2021/12/27 03:39:06;;;;;;;11.75;7.40;;;;;;;15.37;41.66;99036.75;4902727;29;20032;-75
2021/12/27 03:41:31;;;;;;;11.55;8.63;;;;;;;15.43;41.29;99028.91;4919618;29;20672;-73
2021/12/27 03:43:57;;;;;;;11.57;8.45;;;;;;;15.39;41.31;99028.88;4919566;29;20106;-81
2021/12/27 03:46:22;;;;;;;9.32;8.32;;;;;;;15.33;41.47;99018.63;4919788;29;20082;-77
2021/12/27 03:48:48;;;;;;;13.07;10.07;;;;;;;15.34;41.38;99020.19;4919240;29;20442;-76
2021/12/27 03:51:14;;;;;;;13.82;8.82;;;;;;;15.33;41.42;99019.41;4919439;29;20028;-73
2021/12/27 03:53:40;;;;;;;13.02;9.15;;;;;;;15.40;41.30;99019.44;4924904;29;20110;-72
2021/12/27 03:56:08;;;;;;;11.82;8.43;;;;;;;15.42;41.60;99017.09;4935492;29;20020;-72
2021/12/27 03:58:46;;;;;;;12.73;8.88;;;;;;;15.45;41.61;99018.28;4931221;29;20039;-83
2021/12/27 04:01:16;;;;;;;13.82;9.20;;;;;;;15.47;41.61;99027.72;4918866;29;20035;-73
2021/12/27 04:03:44;;;;;;;11.98;8.45;;;;;;;15.49;41.44;99021.81;4918652;29;20071;-73
2021/12/27 04:06:10;;;;;;;12.80;8.68;;;;;;;15.41;41.54;99021.00;4919453;29;20110;-75
2021/12/27 04:08:35;;;;;;;10.05;8.65;;;;;;;15.38;41.67;99015.50;4919798;29;20031;-73
2021/12/27 04:11:01;;;;;;;10.52;7.15;;;;;;;15.34;41.55;99010.00;4918733;29;21614;-73
2021/12/27 04:13:27;;;;;;;11.80;7.50;;;;;;;15.24;41.60;99002.47;4919086;29;20135;-74
2021/12/27 04:15:53;;;;;;;11.30;8.23;;;;;;;15.17;41.63;99002.44;4919025;29;20099;-73
2021/12/27 04:18:19;;;;;;;20.52;7.93;;;;;;;15.15;41.59;99004.78;4919817;29;20036;-73
2021/12/27 04:20:46;;;;;;;104.47;17.88;;;;;;;15.05;41.54;98992.56;4918899;29;20032;-78
2021/12/27 04:23:12;;;;;;;20.73;10.60;;;;;;;14.98;41.73;98996.06;4914502;29;20475;-74
2021/12/27 04:25:38;;;;;;;9.82;7.15;;;;;;;14.95;41.52;98999.56;4921916;29;20088;-73
2021/12/27 04:28:04;;;;;;;8.77;7.32;;;;;;;14.89;41.91;98994.84;4930388;29;20031;-73
2021/12/27 04:30:30;;;;;;;10.15;8.30;;;;;;;14.93;41.75;98990.13;4919376;29;20035;-73
2021/12/27 04:32:55;;;;;;;8.65;6.95;;;;;;;15.02;41.42;98992.53;4935210;29;20391;-73
2021/12/27 04:35:21;;;;;;;23.77;9.07;;;;;;;15.01;41.41;98989.00;4935365;29;20024;-76
2021/12/27 04:37:48;;;;;;;23.65;9.18;;;;;;;14.79;41.77;98990.03;4935172;29;20023;-73
2021/12/27 04:40:16;;;;;;;20.48;8.93;;;;;;;14.71;41.55;98987.25;4934976;29;20387;-73
2021/12/27 04:42:45;;;;;;;70.40;13.57;;;;;;;14.72;41.87;98979.78;4935129;29;20032;-73
2021/12/27 04:45:14;;;;;;;8.50;7.03;;;;;;;14.67;41.77;98978.19;4935121;29;20020;-72
2021/12/27 04:47:41;;;;;;;10.07;7.38;;;;;;;14.71;41.71;98969.97;4935030;29;20439;-73
2021/12/27 04:50:07;;;;;;;18.63;7.47;;;;;;;14.79;41.69;98973.53;4934981;29;20028;-80
2021/12/27 04:52:33;;;;;;;12.25;6.72;;;;;;;14.79;41.79;98971.59;4934995;29;20028;-72
2021/12/27 04:54:59;;;;;;;9.02;6.57;;;;;;;14.79;41.66;98963.34;4934895;29;20055;-82
2021/12/27 04:57:25;;;;;;;9.63;6.78;;;;;;;14.72;41.67;98955.03;4934931;29;20111;-73
2021/12/27 04:59:50;;;;;;;12.73;6.68;;;;;;;14.71;41.85;98943.25;4936749;29;20032;-72
2021/12/27 05:02:16;;;;;;;9.60;6.55;;;;;;;14.78;41.74;98941.72;4938653;29;20023;-73
2021/12/27 05:04:42;;;;;;;7.43;5.63;;;;;;;14.84;41.61;98940.19;4938699;29;20030;-72
2021/12/27 05:07:08;;;;;;;7.82;5.93;;;;;;;14.90;41.72;98935.91;4938510;29;20028;-72
2021/12/27 05:09:34;;;;;;;7.82;6.35;;;;;;;14.91;41.58;98935.53;4938495;29;20063;-73
2021/12/27 05:11:59;;;;;;;23.52;8.18;;;;;;;14.84;41.44;98923.69;4938290;29;20435;-72
2021/12/27 05:14:25;;;;;;;8.07;5.70;;;;;;;14.79;41.48;98929.56;4938420;29;20084;-79
2021/12/27 05:16:50;;;;;;;7.95;6.40;;;;;;;14.77;41.66;98931.91;4944649;29;20027;-83
2021/12/27 05:19:16;;;;;;;11.63;6.50;;;;;;;14.80;41.56;98926.41;4957360;29;20035;-73
2021/12/27 05:21:42;;;;;;;35.83;8.68;;;;;;;14.84;41.68;98926.44;4954737;29;20031;-72
2021/12/27 05:24:08;;;;;;;13.98;6.57;;;;;;;14.83;41.90;98924.88;4938196;29;20054;-72
2021/12/27 05:26:33;;;;;;;21.08;8.30;;;;;;;14.78;41.85;98923.28;4934648;29;20047;-73
2021/12/27 05:28:59;;;;;;;19.73;7.25;;;;;;;14.76;41.72;98922.09;4936292;29;20039;-74
2021/12/27 05:31:24;;;;;;;10.07;6.65;;;;;;;14.72;41.66;98919.31;4938038;29;20028;-72
2021/12/27 05:33:51;;;;;;;6.95;6.10;;;;;;;14.69;41.79;98917.34;4938287;29;20027;-72
2021/12/27 05:36:17;;;;;;;8.75;5.90;;;;;;;14.73;41.55;98918.13;4938073;29;20028;-72
2021/12/27 05:38:42;;;;;;;8.57;6.28;;;;;;;14.70;41.61;98903.19;4937929;29;20083;-72
2021/12/27 05:41:08;;;;;;;7.20;5.88;;;;;;;14.68;41.67;98904.75;4937852;29;20028;-72
2021/12/27 05:43:34;;;;;;;7.32;5.57;;;;;;;14.68;41.78;98913.00;4937840;29;20036;-73
2021/12/27 05:46:00;;;;;;;8.15;6.43;;;;;;;14.64;41.65;98901.19;4937763;29;20038;-72
2021/12/27 05:48:26;;;;;;;10.60;6.35;;;;;;;14.64;41.65;98906.69;4937972;29;20035;-72
2021/12/27 05:50:51;;;;;;;7.68;5.78;;;;;;;14.65;41.70;98908.25;4936273;29;20024;-74
2021/12/27 05:53:17;;;;;;;52.47;7.43;;;;;;;14.60;41.83;98903.16;4937775;29;20112;-73
2021/12/27 05:55:44;;;;;;;6.65;4.50;;;;;;;14.52;41.68;98904.28;4937801;29;20028;-72
2021/12/27 05:58:10;;;;;;;8.35;6.20;;;;;;;14.44;41.68;98898.72;4937470;29;20024;-80
2021/12/27 06:00:36;;;;;;;7.65;5.35;;;;;;;14.40;41.66;98895.16;4937612;29;20028;-72
2021/12/27 06:03:02;;;;;;;7.25;5.20;;;;;;;14.37;41.62;98895.13;4937595;29;20527;-72
2021/12/27 06:05:28;;;;;;;40.25;7.22;;;;;;;14.30;41.78;98895.09;4937362;29;20061;-73
2021/12/27 06:07:54;;;;;;;6.75;5.30;;;;;;;14.20;41.56;98882.84;4920358;29;20027;-72
2021/12/27 06:10:20;;;;;;;8.35;5.72;;;;;;;14.23;41.27;98875.81;4937144;29;20030;-72
2021/12/27 06:12:47;;;;;;;7.53;5.35;;;;;;;14.21;41.17;98873.44;4926220;29;20054;-77
2021/12/27 06:15:13;;;;;;;7.60;5.47;;;;;;;14.17;41.18;98883.59;4918389;29;20031;-72
2021/12/27 06:17:39;;;;;;;8.23;5.50;;;;;;;14.12;41.50;98871.00;4918321;29;20070;-72
2021/12/27 06:20:10;;;;;;;12.02;5.95;;;;;;;14.12;41.47;98876.50;4910695;29;20028;-73
2021/12/27 06:22:38;;;;;;;15.13;5.88;;;;;;;14.20;41.11;98869.09;4901674;29;20583;-73
2021/12/27 06:25:04;;;;;;;25.98;7.97;;;;;;;14.19;41.17;98870.28;4902551;29;20266;-73
2021/12/27 06:27:31;;;;;;;46.25;10.23;;;;;;;14.15;41.10;98859.28;4903388;29;20039;-79
2021/12/27 06:30:02;;;;;;;40.40;9.45;;;;;;;14.19;41.08;98864.78;4902227;29;20044;-74
2021/12/27 06:32:27;;;;;;;44.45;7.93;;;;;;;14.15;41.01;98864.00;4901426;29;20115;-73
2021/12/27 06:34:53;;;;;;;17.05;6.13;;;;;;;14.12;41.03;98856.50;4909173;29;20465;-72
2021/12/27 06:37:19;;;;;;;32.15;6.80;;;;;;;14.11;41.07;98852.97;4903131;29;20041;-73
2021/12/27 06:39:45;;;;;;;29.92;6.80;;;;;;;14.09;41.25;98849.03;4916341;29;20039;-77
2021/12/27 06:42:11;;;;;;;33.83;6.40;;;;;;;13.97;41.24;98841.88;4917822;29;20396;-73
2021/12/27 06:44:37;;;;;;;16.60;6.72;;;;;;;13.91;41.30;98837.94;4914681;29;20067;-72
2021/12/27 06:47:03;;;;;;;23.77;6.43;;;;;;;13.79;41.52;98843.72;4917882;29;20055;-72
2021/12/27 06:49:31;;;;;;;9.25;5.30;;;;;;;13.79;41.41;98839.00;4917749;29;20040;-72
2021/12/27 06:51:57;;;;;;;19.13;6.53;;;;;;;13.78;41.53;98834.69;4917784;29;20036;-80
2021/12/27 06:54:23;;;;;;;8.95;5.53;;;;;;;13.75;41.58;98835.47;4917630;29;20031;-82
2021/12/27 06:56:49;;;;;;;11.15;5.97;;;;;;;13.74;41.49;98833.06;4917730;29;20036;-79
2021/12/27 06:59:15;;;;;;;18.60;6.10;;;;;;;13.69;41.52;98836.19;4917448;29;20083;-72
2021/12/27 07:01:40;;;;;;;28.23;6.60;;;;;;;13.68;41.37;98840.88;4917828;29;20039;-72
2021/12/27 07:04:06;;;;;;;35.92;7.32;;;;;;;13.77;41.57;98843.31;4917471;29;20042;-72
2021/12/27 07:06:31;;;;;;;14.32;6.85;;;;;;;13.80;41.43;98837.84;4917507;29;20444;-73
2021/12/27 07:08:57;;;;;;;10.38;6.15;;;;;;;13.91;41.38;98842.63;4917413;29;20304;-73
2021/12/27 07:11:23;;;;;;;15.70;7.57;;;;;;;14.01;41.38;98839.16;4917375;29;20093;-81
2021/12/27 07:13:48;;;;;;;13.02;6.68;;;;;;;14.10;41.17;98847.84;4935895;29;20063;-80
2021/12/27 07:16:14;;;;;;;10.60;7.00;;;;;;;14.18;41.48;98841.25;4936313;29;20090;-82
2021/12/27 07:18:40;;;;;;;17.77;7.57;;;;;;;14.17;41.62;98850.66;4936068;29;20028;-79
2021/12/27 07:21:06;;;;;;;9.30;6.93;;;;;;;14.22;41.68;98839.31;4936182;29;20027;-73
2021/12/27 07:23:31;;;;;;;11.18;7.25;;;;;;;14.32;41.38;98833.09;4935091;29;20083;-72
2021/12/27 07:25:57;;;;;;;9.27;6.80;;;;;;;14.40;41.31;98842.16;4936042;29;20032;-72
2021/12/27 07:28:23;;;;;;;13.35;7.32;;;;;;;14.33;41.48;98834.66;4935896;29;20023;-76
2021/12/27 07:30:49;;;;;;;17.25;8.13;;;;;;;14.34;41.44;98838.97;4935895;29;20031;-73
2021/12/27 07:33:15;;;;;;;9.25;6.45;;;;;;;14.34;41.18;98832.69;4935826;29;20068;-73
2021/12/27 07:35:41;;;;;;;16.42;7.63;;;;;;;14.30;41.55;98824.44;4935943;29;20035;-72
2021/12/27 07:38:07;;;;;;;8.48;6.55;;;;;;;14.29;41.45;98825.63;4921116;29;20473;-73
2021/12/27 07:40:33;;;;;;;9.27;6.03;;;;;;;14.27;41.51;98818.91;4925033;29;20024;-72
2021/12/27 07:42:59;;;;;;;10.13;7.85;;;;;;;14.23;41.44;98826.38;4923481;29;20441;-73
2021/12/27 07:45:25;;;;;;;10.02;6.78;;;;;;;14.24;41.29;98831.47;4927601;29;20042;-73
2021/12/27 07:47:51;;;;;;;12.25;7.22;;;;;;;14.12;41.58;98824.31;4919434;29;20027;-74
2021/12/27 07:50:16;;;;;;;8.40;6.68;;;;;;;14.19;41.63;98818.09;4920042;29;20478;-73
2021/12/27 07:52:42;;;;;;;13.15;6.97;;;;;;;14.19;41.55;98815.34;4919087;29;20054;-73
2021/12/27 07:55:08;;;;;;;11.35;7.95;;;;;;;14.24;41.63;98812.25;4919533;29;20028;-74
2021/12/27 07:57:34;;;;;;;15.35;7.57;;;;;;;14.25;41.66;98816.56;4918701;29;20036;-72
2021/12/27 08:00:00;;;;;;;12.05;10.23;;;;;;;14.30;41.80;98813.47;4919932;29;20039;-72
2021/12/27 08:02:25;;;;;;;17.23;13.63;;;;;;;14.39;41.94;98813.09;4918872;29;20028;-72
2021/12/27 08:04:51;;;;;;;13.35;8.45;;;;;;;14.50;42.04;98822.19;4919672;29;20531;-74
2021/12/27 08:07:16;;;;;;;14.18;8.40;;;;;;;14.52;41.89;98813.59;4918499;29;20035;-73
2021/12/27 08:09:42;;;;;;;10.93;8.05;;;;;;;14.61;41.93;98822.28;4919595;29;20038;-73
2021/12/27 08:12:12;;;;;;;11.45;6.88;;;;;;;14.63;41.98;98823.44;4919384;29;20083;-72
2021/12/27 08:14:38;;;;;;;15.07;7.88;;;;;;;14.71;41.80;98824.28;4919567;29;20390;-80
2021/12/27 08:17:04;;;;;;;11.63;8.32;;;;;;;14.75;41.90;98818.78;4924620;29;20083;-73
2021/12/27 08:19:29;;;;;;;17.85;9.35;;;;;;;14.81;42.09;98819.97;4919049;29;20451;-73
2021/12/27 08:21:55;;;;;;;13.95;8.88;;;;;;;14.85;42.04;98820.78;4919171;29;20482;-73
2021/12/27 08:24:20;;;;;;;12.25;8.57;;;;;;;14.86;41.89;98820.41;4918476;29;20115;-73
2021/12/27 08:26:46;;;;;;;17.00;14.45;;;;;;;14.84;42.45;98830.22;4901737;29;20043;-73
2021/12/27 08:29:11;;;;;;;24.38;11.98;;;;;;;14.96;42.20;98819.66;4918988;29;20107;-73
2021/12/27 08:31:37;;;;;;;13.95;8.85;;;;;;;14.97;42.19;98820.44;4919287;29;20471;-73
2021/12/27 08:34:03;;;;;;;15.50;10.02;;;;;;;14.99;42.29;98813.38;4924091;29;20510;-80
2021/12/27 08:36:29;;;;;;;13.05;7.57;;;;;;;15.00;42.09;98814.16;4939153;29;20492;-72
2021/12/27 08:38:54;;;;;;;14.45;10.45;;;;;;;15.03;42.35;98816.13;4939184;29;20031;-74
2021/12/27 08:41:20;;;;;;;15.60;9.52;;;;;;;15.04;42.13;98800.41;4927263;29;20032;-73
2021/12/27 08:43:46;;;;;;;23.77;8.93;;;;;;;15.07;42.43;98802.38;4922811;29;20101;-74
2021/12/27 08:46:12;;;;;;;15.60;8.48;;;;;;;15.11;42.50;98806.69;4922830;29;20027;-73
2021/12/27 08:48:40;;;;;;;17.20;7.90;;;;;;;15.09;42.59;98800.03;4921990;29;20479;-83
2021/12/27 08:51:05;;;;;;;13.93;7.57;;;;;;;15.13;42.84;98801.63;4922264;29;20024;-72
2021/12/27 08:53:31;;;;;;;15.73;8.27;;;;;;;15.18;42.64;98794.94;4922290;29;20035;-79
2021/12/27 08:55:57;;;;;;;14.40;8.70;;;;;;;15.09;43.24;98800.03;4922883;29;20501;-83
2021/12/27 08:58:23;;;;;;;16.02;8.38;;;;;;;15.22;43.05;98792.97;4921614;29;20027;-80
2021/12/27 09:00:49;;;;;;;15.48;8.02;;;;;;;15.27;42.99;98781.59;4922014;29;20168;-81
2021/12/27 09:03:14;;;;;;;17.20;7.90;;;;;;;15.27;43.14;98781.59;4922158;29;20930;-73
2021/12/27 09:05:41;;;;;;;11.98;7.80;;;;;;;15.24;43.00;98780.41;4921898;29;20027;-73
2021/12/27 09:08:08;;;;;;;16.08;7.75;;;;;;;15.29;43.10;98781.19;4922979;29;20406;-73
2021/12/27 09:10:34;;;;;;;12.15;7.10;;;;;;;15.29;42.97;98787.50;4922578;29;20436;-74
2021/12/27 09:13:00;;;;;;;17.10;8.70;;;;;;;15.34;43.30;98778.84;4922473;29;20048;-74
2021/12/27 09:15:27;;;;;;;12.23;8.35;;;;;;;15.36;43.14;98778.47;4930447;29;20027;-78
2021/12/27 09:17:53;;;;;;;13.13;8.85;;;;;;;15.37;43.05;98780.03;4938183;29;20042;-77
2021/12/27 09:20:20;;;;;;;10.10;8.68;;;;;;;15.28;43.25;98780.41;4929769;29;20439;-78
2021/12/27 09:22:45;;;;;;;18.35;9.13;;;;;;;15.34;43.22;98780.78;4922285;29;20039;-80
2021/12/27 09:25:11;;;;;;;14.52;6.47;;;;;;;15.33;43.31;98781.97;4922894;29;20023;-78
2021/12/27 09:27:37;;;;;;;12.85;7.38;;;;;;;15.41;43.38;98772.53;4922498;29;20024;-78
2021/12/27 09:30:04;;;;;;;13.75;7.20;;;;;;;15.46;43.28;98775.69;4917347;29;20525;-78
2021/12/27 09:32:30;;;;;;;13.90;7.10;;;;;;;15.57;43.23;98783.16;4937878;29;20122;-78
2021/12/27 09:34:55;;;;;;;11.80;6.00;;;;;;;15.58;43.49;98771.00;4937913;29;20030;-77
2021/12/27 09:37:21;;;;;;;14.27;6.57;;;;;;;15.67;43.58;98771.41;4938592;29;20374;-78
2021/12/27 09:39:53;;;;;;;15.90;6.88;;;;;;;15.80;43.33;98765.09;4938023;29;20032;-78
2021/12/27 09:42:20;;;;;;;13.38;7.35;;;;;;;15.88;43.82;98762.34;4938179;29;20036;-78
2021/12/27 09:44:45;;;;;;;14.93;7.65;;;;;;;15.96;43.50;98761.91;4938021;29;20062;-78
2021/12/27 09:47:11;;;;;;;12.40;6.28;;;;;;;16.02;43.54;98771.38;4937072;29;20068;-78
2021/12/27 09:49:37;;;;;;;10.45;4.63;;;;;;;16.08;43.29;98769.75;4938186;29;20095;-78
2021/12/27 09:52:03;;;;;;;15.20;6.15;;;;;;;16.18;43.77;98768.16;4937874;29;20520;-78
2021/12/27 09:54:29;;;;;;;20.23;11.30;;;;;;;16.33;43.69;98768.91;4937515;29;20032;-77
2021/12/27 09:56:55;;;;;;;28.40;15.25;;;;;;;16.45;43.79;98771.22;4920721;29;20119;-78
2021/12/27 09:59:22;;;;;;;25.80;14.05;;;;;;;16.56;43.93;98765.66;4936746;29;20495;-78
2021/12/27 10:01:48;;;;;;;17.10;7.90;;;;;;;16.71;44.03;98761.69;4932840;29;20738;-78
2021/12/27 10:04:14;;;;;;;14.65;5.40;;;;;;;16.87;44.08;98761.22;4921459;29;20207;-79
2021/12/27 10:06:41;;;;;;;16.15;5.60;;;;;;;17.00;44.29;98756.00;4922707;29;20654;-78
2021/12/27 10:09:07;;;;;;;18.23;6.38;;;;;;;17.13;44.35;98755.13;4921007;29;20043;-79
2021/12/27 10:11:35;;;;;;;19.95;7.13;;;;;;;17.15;44.39;98749.19;4922194;29;20395;-79
2021/12/27 10:14:12;;;;;;;22.50;8.82;;;;;;;17.27;44.35;98747.94;4921341;29;20047;-78
2021/12/27 10:16:51;;;;;;;20.17;10.57;;;;;;;17.16;45.10;98748.03;4904738;29;21248;-78
2021/12/27 10:19:19;;;;;;;16.17;11.25;;;;;;;17.32;44.14;98747.50;4926754;29;20095;-78
2021/12/27 10:21:46;;;;;;;19.27;10.27;;;;;;;17.31;44.50;98756.97;4921909;29;20555;-79
2021/12/27 10:24:16;;;;;;;19.77;8.18;;;;;;;17.32;44.37;98748.28;4921189;29;20035;-78
2021/12/27 10:26:47;;;;;;;15.43;6.10;;;;;;;17.38;44.59;98757.72;4920920;29;20044;-79
2021/12/27 10:29:20;;;;;;;15.30;4.93;;;;;;;17.45;44.58;98748.56;4921277;29;20031;-78
2021/12/27 10:32:16;;;;;;;10.77;3.70;;;;;;;17.43;45.07;98745.44;4920988;29;20027;-78
2021/12/27 10:34:50;;;;;;;16.30;6.60;;;;;;;17.51;45.42;98737.88;4920674;29;20038;-79
2021/12/27 10:37:22;;;;;;;26.58;16.10;;;;;;;17.64;44.99;98742.50;4922558;29;20075;-78
2021/12/27 10:39:49;;;;;;;19.35;10.68;;;;;;;17.77;45.06;98742.03;4907540;29;20054;-79
2021/12/27 10:42:22;;;;;;;20.40;10.60;;;;;;;17.94;45.29;98739.06;4925621;29;20031;-78
2021/12/27 10:44:51;;;;;;;14.73;7.07;;;;;;;18.03;45.34;98733.84;4919900;29;20026;-78
2021/12/27 10:47:47;;;;;;;12.57;4.70;;;;;;;18.16;45.83;98730.56;4942508;29;20390;-78
2021/12/27 10:50:15;;;;;;;13.25;4.03;;;;;;;18.22;45.70;98723.38;4947862;29;20042;-77
2021/12/27 10:52:51;;;;;;;13.05;3.60;;;;;;;18.27;45.74;98723.69;4955952;29;20023;-77
2021/12/27 10:55:25;;;;;;;8.52;2.92;;;;;;;18.37;45.92;98721.22;4955573;29;20019;-78
2021/12/27 10:57:52;;;;;;;10.15;3.90;;;;;;;18.41;45.54;98722.72;4930405;29;20711;-79
2021/12/27 11:00:26;;;;;;;11.50;3.00;;;;;;;18.55;45.61;98721.78;4921257;29;20038;-78
2021/12/27 11:02:52;;;;;;;12.45;3.25;;;;;;;18.64;45.41;98713.75;4929761;29;20039;-82
2021/12/27 11:05:24;;;;;;;12.70;2.92;;;;;;;18.58;45.89;98704.34;4936519;29;20324;-77
2021/12/27 11:07:54;;;;;;;13.18;3.08;;;;;;;18.57;45.77;98702.78;4936460;29;20111;-83
2021/12/27 11:10:21;;;;;;;10.77;2.85;;;;;;;18.68;45.67;98697.13;4936566;29;20031;-76
2021/12/27 11:12:50;;;;;;;17.60;4.05;;;;;;;18.72;45.98;98695.88;4936156;29;20176;-75
2021/12/27 11:15:17;;;;;;;8.90;2.60;;;;;;;18.71;45.77;98686.00;4936139;29;20125;-78
2021/12/27 11:17:45;;;;;;;16.02;3.20;;;;;;;18.74;46.00;98678.84;4933155;29;20031;-77
2021/12/27 11:20:12;;;;;;;10.45;2.28;;;;;;;18.73;46.00;98672.53;4930790;29;20024;-75
2021/12/27 11:22:41;;;;;;;14.15;3.47;;;;;;;18.79;45.83;98675.63;4935645;29;20047;-77
2021/12/27 11:25:19;;;;;;;11.05;2.75;;;;;;;18.76;46.00;98676.47;4916056;29;20031;-76
2021/12/27 11:27:45;;;;;;;11.75;2.53;;;;;;;18.85;45.97;98673.94;4935601;29;20032;-76